sensor_id;sensor_type;location;lat;lon;timestamp;temperature;humidity
14755;DHT22;7469;50.906;6.952;2022-10-03T00:01:35;11.00;99.90
14755;DHT22;7469;50.906;6.952;2022-10-03T00:04:19;11.00;99.90
14755;DHT22;7469;50.906;6.952;2022-10-03T00:07:00;10.90;99.90
14755;DHT22;7469;50.906;6.952;2022-10-03T00:09:46;10.90;99.90
14755;DHT22;7469;50.906;6.952;2022-10-03T00:12:36;10.90;99.90
14755;DHT22;7469;50.906;6.952;2022-10-03T00:15:17;10.80;99.90
14755;DHT22;7469;50.906;6.952;2022-10-03T00:18:00;10.80;99.90
14755;DHT22;7469;50.906;6.952;2022-10-03T00:20:47;10.80;99.90
14755;DHT22;7469;50.906;6.952;2022-10-03T00:23:23;10.70;99.90
14755;DHT22;7469;50.906;6.952;2022-10-03T00:25:59;10.70;99.90
14755;DHT22;7469;50.906;6.952;2022-10-03T00:29:02;10.70;99.90
14755;DHT22;7469;50.906;6.952;2022-10-03T00:31:40;10.70;99.90
14755;DHT22;7469;50.906;6.952;2022-10-03T00:34:20;10.60;99.90
14755;DHT22;7469;50.906;6.952;2022-10-03T00:37:06;10.60;99.90
14755;DHT22;7469;50.906;6.952;2022-10-03T00:39:55;10.60;99.90
14755;DHT22;7469;50.906;6.952;2022-10-03T00:42:48;10.60;99.90
14755;DHT22;7469;50.906;6.952;2022-10-03T00:48:45;10.50;99.90
14755;DHT22;7469;50.906;6.952;2022-10-03T00:51:34;10.50;99.90
14755;DHT22;7469;50.906;6.952;2022-10-03T00:54:22;10.50;99.90
14755;DHT22;7469;50.906;6.952;2022-10-03T00:57:02;10.50;99.90
14755;DHT22;7469;50.906;6.952;2022-10-03T00:59:46;10.40;99.90
14755;DHT22;7469;50.906;6.952;2022-10-03T01:02:28;10.40;99.90
14755;DHT22;7469;50.906;6.952;2022-10-03T01:05:10;10.40;99.90
14755;DHT22;7469;50.906;6.952;2022-10-03T01:08:04;10.40;99.90
14755;DHT22;7469;50.906;6.952;2022-10-03T01:10:44;10.40;99.90
14755;DHT22;7469;50.906;6.952;2022-10-03T01:13:27;10.40;99.90
14755;DHT22;7469;50.906;6.952;2022-10-03T01:16:05;10.30;99.90
14755;DHT22;7469;50.906;6.952;2022-10-03T01:18:48;10.30;99.90
14755;DHT22;7469;50.906;6.952;2022-10-03T01:21:31;10.30;99.90
14755;DHT22;7469;50.906;6.952;2022-10-03T01:27:02;10.30;99.90
14755;DHT22;7469;50.906;6.952;2022-10-03T01:29:40;10.30;99.90
14755;DHT22;7469;50.906;6.952;2022-10-03T01:32:34;10.30;99.90
14755;DHT22;7469;50.906;6.952;2022-10-03T01:35:13;10.30;99.90
14755;DHT22;7469;50.906;6.952;2022-10-03T01:37:50;10.30;99.90
14755;DHT22;7469;50.906;6.952;2022-10-03T01:40:25;10.20;99.90
14755;DHT22;7469;50.906;6.952;2022-10-03T01:43:12;10.20;99.90
14755;DHT22;7469;50.906;6.952;2022-10-03T01:46:05;10.20;99.90
14755;DHT22;7469;50.906;6.952;2022-10-03T01:48:41;10.20;99.90
14755;DHT22;7469;50.906;6.952;2022-10-03T01:51:13;10.20;99.90
14755;DHT22;7469;50.906;6.952;2022-10-03T01:53:54;10.20;99.90
14755;DHT22;7469;50.906;6.952;2022-10-03T01:56:30;10.10;99.90
14755;DHT22;7469;50.906;6.952;2022-10-03T01:59:03;10.10;99.90
14755;DHT22;7469;50.906;6.952;2022-10-03T02:01:42;10.10;99.90
14755;DHT22;7469;50.906;6.952;2022-10-03T02:04:18;10.10;99.90
14755;DHT22;7469;50.906;6.952;2022-10-03T02:06:53;10.10;99.90
14755;DHT22;7469;50.906;6.952;2022-10-03T02:09:31;10.00;99.90
14755;DHT22;7469;50.906;6.952;2022-10-03T02:12:08;10.00;99.90
14755;DHT22;7469;50.906;6.952;2022-10-03T02:14:50;10.00;99.90
14755;DHT22;7469;50.906;6.952;2022-10-03T02:17:26;10.00;99.90
14755;DHT22;7469;50.906;6.952;2022-10-03T02:20:05;9.90;99.90
14755;DHT22;7469;50.906;6.952;2022-10-03T02:22:41;9.90;99.90
14755;DHT22;7469;50.906;6.952;2022-10-03T02:25:35;9.90;99.90
14755;DHT22;7469;50.906;6.952;2022-10-03T02:28:32;9.90;99.90
14755;DHT22;7469;50.906;6.952;2022-10-03T02:34:28;9.80;99.90
14755;DHT22;7469;50.906;6.952;2022-10-03T02:37:26;9.80;99.90
14755;DHT22;7469;50.906;6.952;2022-10-03T02:40:20;9.80;99.90
14755;DHT22;7469;50.906;6.952;2022-10-03T02:43:14;9.80;99.90
14755;DHT22;7469;50.906;6.952;2022-10-03T02:46:19;9.70;99.90
14755;DHT22;7469;50.906;6.952;2022-10-03T02:49:21;9.80;99.90
14755;DHT22;7469;50.906;6.952;2022-10-03T02:52:14;9.70;99.90
14755;DHT22;7469;50.906;6.952;2022-10-03T03:07:31;9.60;99.90
14755;DHT22;7469;50.906;6.952;2022-10-03T03:10:32;9.60;99.90
14755;DHT22;7469;50.906;6.952;2022-10-03T03:16:41;9.50;99.90
14755;DHT22;7469;50.906;6.952;2022-10-03T03:19:49;9.50;99.90
14755;DHT22;7469;50.906;6.952;2022-10-03T03:22:31;9.40;99.90
14755;DHT22;7469;50.906;6.952;2022-10-03T03:25:28;9.40;99.90
14755;DHT22;7469;50.906;6.952;2022-10-03T03:28:08;9.40;99.90
14755;DHT22;7469;50.906;6.952;2022-10-03T03:30:43;9.30;99.90
14755;DHT22;7469;50.906;6.952;2022-10-03T03:33:19;9.30;99.90
14755;DHT22;7469;50.906;6.952;2022-10-03T03:35:58;9.40;99.90
14755;DHT22;7469;50.906;6.952;2022-10-03T03:38:34;9.40;99.90
14755;DHT22;7469;50.906;6.952;2022-10-03T03:41:28;9.30;99.90
14755;DHT22;7469;50.906;6.952;2022-10-03T03:44:10;9.40;99.90
14755;DHT22;7469;50.906;6.952;2022-10-03T03:46:59;9.40;99.90
14755;DHT22;7469;50.906;6.952;2022-10-03T03:49:40;9.40;99.90
14755;DHT22;7469;50.906;6.952;2022-10-03T03:52:26;9.40;99.90
14755;DHT22;7469;50.906;6.952;2022-10-03T03:55:11;9.40;99.90
14755;DHT22;7469;50.906;6.952;2022-10-03T03:58:04;9.40;99.90
14755;DHT22;7469;50.906;6.952;2022-10-03T04:00:45;9.40;99.90
14755;DHT22;7469;50.906;6.952;2022-10-03T04:03:29;9.40;99.90
14755;DHT22;7469;50.906;6.952;2022-10-03T04:06:11;9.40;99.90
14755;DHT22;7469;50.906;6.952;2022-10-03T04:08:58;9.40;99.90
14755;DHT22;7469;50.906;6.952;2022-10-03T04:11:43;9.40;99.90
14755;DHT22;7469;50.906;6.952;2022-10-03T04:14:44;9.40;99.90
14755;DHT22;7469;50.906;6.952;2022-10-03T04:17:26;9.40;99.90
14755;DHT22;7469;50.906;6.952;2022-10-03T04:20:24;9.40;99.90
14755;DHT22;7469;50.906;6.952;2022-10-03T04:23:10;9.40;99.90
14755;DHT22;7469;50.906;6.952;2022-10-03T04:25:51;9.40;99.90
14755;DHT22;7469;50.906;6.952;2022-10-03T04:28:37;9.40;99.90
14755;DHT22;7469;50.906;6.952;2022-10-03T04:31:18;9.30;99.90
14755;DHT22;7469;50.906;6.952;2022-10-03T04:34:00;9.30;99.90
14755;DHT22;7469;50.906;6.952;2022-10-03T04:36:45;9.30;99.90
14755;DHT22;7469;50.906;6.952;2022-10-03T04:39:28;9.20;99.90
14755;DHT22;7469;50.906;6.952;2022-10-03T04:42:02;9.20;99.90
14755;DHT22;7469;50.906;6.952;2022-10-03T04:44:46;9.10;99.90
14755;DHT22;7469;50.906;6.952;2022-10-03T04:47:21;9.10;99.90
14755;DHT22;7469;50.906;6.952;2022-10-03T04:49:57;9.10;99.90
14755;DHT22;7469;50.906;6.952;2022-10-03T04:52:32;9.10;99.90
14755;DHT22;7469;50.906;6.952;2022-10-03T04:55:14;9.10;99.90
14755;DHT22;7469;50.906;6.952;2022-10-03T04:57:52;9.10;99.90
14755;DHT22;7469;50.906;6.952;2022-10-03T05:00:36;9.10;99.90
14755;DHT22;7469;50.906;6.952;2022-10-03T05:03:20;9.10;99.90
14755;DHT22;7469;50.906;6.952;2022-10-03T05:05:56;9.10;99.90
14755;DHT22;7469;50.906;6.952;2022-10-03T05:08:32;9.10;99.90
14755;DHT22;7469;50.906;6.952;2022-10-03T05:11:09;9.10;99.90
14755;DHT22;7469;50.906;6.952;2022-10-03T05:13:47;9.10;99.90
14755;DHT22;7469;50.906;6.952;2022-10-03T05:16:25;9.10;99.90
14755;DHT22;7469;50.906;6.952;2022-10-03T05:19:09;9.10;99.90
14755;DHT22;7469;50.906;6.952;2022-10-03T05:21:47;9.10;99.90
14755;DHT22;7469;50.906;6.952;2022-10-03T05:24:22;9.10;99.90
14755;DHT22;7469;50.906;6.952;2022-10-03T05:26:56;9.10;99.90
14755;DHT22;7469;50.906;6.952;2022-10-03T05:29:37;9.10;99.90
14755;DHT22;7469;50.906;6.952;2022-10-03T05:32:22;9.10;99.90
14755;DHT22;7469;50.906;6.952;2022-10-03T05:35:16;9.10;99.90
14755;DHT22;7469;50.906;6.952;2022-10-03T05:38:04;9.10;99.90
14755;DHT22;7469;50.906;6.952;2022-10-03T05:40:40;9.10;99.90
14755;DHT22;7469;50.906;6.952;2022-10-03T05:43:24;9.10;99.90
14755;DHT22;7469;50.906;6.952;2022-10-03T05:46:00;9.10;99.90
14755;DHT22;7469;50.906;6.952;2022-10-03T05:48:40;9.10;99.90
14755;DHT22;7469;50.906;6.952;2022-10-03T05:54:31;9.10;99.90
14755;DHT22;7469;50.906;6.952;2022-10-03T05:57:32;9.10;99.90
14755;DHT22;7469;50.906;6.952;2022-10-03T06:00:10;9.10;99.90
14755;DHT22;7469;50.906;6.952;2022-10-03T06:03:08;9.10;99.90
14755;DHT22;7469;50.906;6.952;2022-10-03T06:05:53;9.20;99.90
14755;DHT22;7469;50.906;6.952;2022-10-03T06:08:51;9.10;99.90
14755;DHT22;7469;50.906;6.952;2022-10-03T06:11:38;9.10;99.90
14755;DHT22;7469;50.906;6.952;2022-10-03T06:14:30;9.10;99.90
14755;DHT22;7469;50.906;6.952;2022-10-03T06:17:24;9.10;99.90
14755;DHT22;7469;50.906;6.952;2022-10-03T06:20:02;9.10;99.90
14755;DHT22;7469;50.906;6.952;2022-10-03T06:23:10;9.10;99.90
14755;DHT22;7469;50.906;6.952;2022-10-03T06:26:19;9.10;99.90
14755;DHT22;7469;50.906;6.952;2022-10-03T06:41:18;9.20;99.90
14755;DHT22;7469;50.906;6.952;2022-10-03T06:44:05;9.40;99.90
14755;DHT22;7469;50.906;6.952;2022-10-03T06:47:13;9.50;99.90
14755;DHT22;7469;50.906;6.952;2022-10-03T06:50:11;9.70;99.90
14755;DHT22;7469;50.906;6.952;2022-10-03T06:56:22;10.10;99.90
14755;DHT22;7469;50.906;6.952;2022-10-03T07:05:55;10.70;99.90
14755;DHT22;7469;50.906;6.952;2022-10-03T07:08:49;10.80;99.90
14755;DHT22;7469;50.906;6.952;2022-10-03T07:11:42;10.90;99.90
14755;DHT22;7469;50.906;6.952;2022-10-03T07:17:27;11.00;99.90
14755;DHT22;7469;50.906;6.952;2022-10-03T07:20:13;11.10;99.90
14755;DHT22;7469;50.906;6.952;2022-10-03T07:23:19;11.20;99.90
14755;DHT22;7469;50.906;6.952;2022-10-03T07:26:14;11.30;99.90
14755;DHT22;7469;50.906;6.952;2022-10-03T07:29:17;11.40;99.90
14755;DHT22;7469;50.906;6.952;2022-10-03T07:31:59;11.50;99.90
14755;DHT22;7469;50.906;6.952;2022-10-03T07:34:52;11.60;99.90
14755;DHT22;7469;50.906;6.952;2022-10-03T07:43:59;12.10;99.90
14755;DHT22;7469;50.906;6.952;2022-10-03T07:47:14;12.20;99.90
14755;DHT22;7469;50.906;6.952;2022-10-03T07:50:00;12.40;99.90
14755;DHT22;7469;50.906;6.952;2022-10-03T07:52:49;12.50;99.90
14755;DHT22;7469;50.906;6.952;2022-10-03T07:55:29;12.70;99.90
14755;DHT22;7469;50.906;6.952;2022-10-03T07:58:23;12.80;99.90
14755;DHT22;7469;50.906;6.952;2022-10-03T08:01:19;12.90;99.90
14755;DHT22;7469;50.906;6.952;2022-10-03T08:04:08;13.10;99.90
14755;DHT22;7469;50.906;6.952;2022-10-03T08:06:46;13.20;99.90
14755;DHT22;7469;50.906;6.952;2022-10-03T08:09:37;13.30;99.90
14755;DHT22;7469;50.906;6.952;2022-10-03T08:12:46;13.40;99.90
14755;DHT22;7469;50.906;6.952;2022-10-03T08:15:24;13.50;99.90
14755;DHT22;7469;50.906;6.952;2022-10-03T08:21:00;13.90;99.90
14755;DHT22;7469;50.906;6.952;2022-10-03T08:23:57;14.10;99.90
14755;DHT22;7469;50.906;6.952;2022-10-03T08:26:48;14.30;99.90
14755;DHT22;7469;50.906;6.952;2022-10-03T08:29:36;14.50;99.90
14755;DHT22;7469;50.906;6.952;2022-10-03T08:35:43;14.90;99.90
14755;DHT22;7469;50.906;6.952;2022-10-03T08:50:52;16.30;99.90
14755;DHT22;7469;50.906;6.952;2022-10-03T08:53:51;16.70;99.90
14755;DHT22;7469;50.906;6.952;2022-10-03T08:56:26;17.10;99.90
14755;DHT22;7469;50.906;6.952;2022-10-03T09:02:35;17.90;99.90
14755;DHT22;7469;50.906;6.952;2022-10-03T09:05:32;18.20;99.90
14755;DHT22;7469;50.906;6.952;2022-10-03T09:08:35;18.50;99.90
14755;DHT22;7469;50.906;6.952;2022-10-03T09:11:33;18.70;99.90
14755;DHT22;7469;50.906;6.952;2022-10-03T09:14:31;18.90;99.90
14755;DHT22;7469;50.906;6.952;2022-10-03T09:17:14;19.10;99.90
14755;DHT22;7469;50.906;6.952;2022-10-03T09:20:25;19.10;99.90
14755;DHT22;7469;50.906;6.952;2022-10-03T09:23:12;19.20;99.90
14755;DHT22;7469;50.906;6.952;2022-10-03T09:26:10;19.40;99.90
14755;DHT22;7469;50.906;6.952;2022-10-03T09:29:11;19.60;99.90
14755;DHT22;7469;50.906;6.952;2022-10-03T09:35:05;20.20;99.90
14755;DHT22;7469;50.906;6.952;2022-10-03T09:38:09;20.30;99.90
14755;DHT22;7469;50.906;6.952;2022-10-03T09:44:18;23.30;99.90
14755;DHT22;7469;50.906;6.952;2022-10-03T09:47:20;25.80;99.90
14755;DHT22;7469;50.906;6.952;2022-10-03T09:59:55;29.30;86.10
14755;DHT22;7469;50.906;6.952;2022-10-03T10:02:45;28.20;83.70
14755;DHT22;7469;50.906;6.952;2022-10-03T10:12:01;25.10;86.50
14755;DHT22;7469;50.906;6.952;2022-10-03T10:21:12;22.40;92.20
14755;DHT22;7469;50.906;6.952;2022-10-03T10:23:51;21.70;93.90
14755;DHT22;7469;50.906;6.952;2022-10-03T10:26:54;21.20;95.40
14755;DHT22;7469;50.906;6.952;2022-10-03T10:30:07;20.90;96.70
14755;DHT22;7469;50.906;6.952;2022-10-03T10:39:17;25.40;94.90
14755;DHT22;7469;50.906;6.952;2022-10-03T10:45:14;28.20;85.60
14755;DHT22;7469;50.906;6.952;2022-10-03T10:51:41;28.70;75.10
14755;DHT22;7469;50.906;6.952;2022-10-03T11:00:22;32.80;55.40
14755;DHT22;7469;50.906;6.952;2022-10-03T11:03:30;33.50;50.00
14755;DHT22;7469;50.906;6.952;2022-10-03T11:06:40;34.10;46.70
14755;DHT22;7469;50.906;6.952;2022-10-03T11:09:48;34.60;43.00
14755;DHT22;7469;50.906;6.952;2022-10-03T11:12:55;34.60;39.50
14755;DHT22;7469;50.906;6.952;2022-10-03T11:28:11;29.00;40.30
14755;DHT22;7469;50.906;6.952;2022-10-03T11:37:05;25.70;46.00
14755;DHT22;7469;50.906;6.952;2022-10-03T11:39:45;25.00;47.70
14755;DHT22;7469;50.906;6.952;2022-10-03T11:42:21;24.50;49.20
14755;DHT22;7469;50.906;6.952;2022-10-03T11:44:57;24.20;50.50
14755;DHT22;7469;50.906;6.952;2022-10-03T11:47:38;24.10;51.30
14755;DHT22;7469;50.906;6.952;2022-10-03T11:53:20;24.00;52.70
14755;DHT22;7469;50.906;6.952;2022-10-03T11:55:58;23.60;53.20
14755;DHT22;7469;50.906;6.952;2022-10-03T11:58:55;23.30;54.20
14755;DHT22;7469;50.906;6.952;2022-10-03T12:01:35;23.10;54.90
14755;DHT22;7469;50.906;6.952;2022-10-03T12:04:10;22.90;55.40
14755;DHT22;7469;50.906;6.952;2022-10-03T12:06:51;22.70;56.00
14755;DHT22;7469;50.906;6.952;2022-10-03T12:09:54;22.40;56.70
14755;DHT22;7469;50.906;6.952;2022-10-03T12:12:30;22.10;57.70
14755;DHT22;7469;50.906;6.952;2022-10-03T12:15:13;21.90;58.70
14755;DHT22;7469;50.906;6.952;2022-10-03T12:17:48;21.70;59.50
14755;DHT22;7469;50.906;6.952;2022-10-03T12:20:24;21.40;60.60
14755;DHT22;7469;50.906;6.952;2022-10-03T12:23:01;21.30;61.80
14755;DHT22;7469;50.906;6.952;2022-10-03T12:25:33;21.20;62.50
14755;DHT22;7469;50.906;6.952;2022-10-03T12:28:09;21.20;63.80
14755;DHT22;7469;50.906;6.952;2022-10-03T12:30:46;21.10;64.80
14755;DHT22;7469;50.906;6.952;2022-10-03T12:33:28;21.20;66.00
14755;DHT22;7469;50.906;6.952;2022-10-03T12:36:04;21.10;66.80
14755;DHT22;7469;50.906;6.952;2022-10-03T12:38:55;21.10;67.60
14755;DHT22;7469;50.906;6.952;2022-10-03T12:41:41;21.10;68.50
14755;DHT22;7469;50.906;6.952;2022-10-03T12:44:18;21.00;68.40
14755;DHT22;7469;50.906;6.952;2022-10-03T12:46:55;21.00;68.70
14755;DHT22;7469;50.906;6.952;2022-10-03T12:49:42;20.80;69.30
14755;DHT22;7469;50.906;6.952;2022-10-03T12:52:17;20.70;70.20
14755;DHT22;7469;50.906;6.952;2022-10-03T12:54:51;20.60;70.80
14755;DHT22;7469;50.906;6.952;2022-10-03T13:00:21;20.50;72.70
14755;DHT22;7469;50.906;6.952;2022-10-03T13:03:10;20.50;73.80
14755;DHT22;7469;50.906;6.952;2022-10-03T13:06:18;20.50;74.60
14755;DHT22;7469;50.906;6.952;2022-10-03T13:09:24;20.50;75.10
14755;DHT22;7469;50.906;6.952;2022-10-03T13:12:02;20.50;74.80
14755;DHT22;7469;50.906;6.952;2022-10-03T13:17:36;20.50;75.30
14755;DHT22;7469;50.906;6.952;2022-10-03T13:20:15;20.50;75.90
14755;DHT22;7469;50.906;6.952;2022-10-03T13:22:54;20.50;76.40
14755;DHT22;7469;50.906;6.952;2022-10-03T13:25:29;20.50;77.40
14755;DHT22;7469;50.906;6.952;2022-10-03T13:28:06;20.50;77.90
14755;DHT22;7469;50.906;6.952;2022-10-03T13:30:42;20.50;78.30
14755;DHT22;7469;50.906;6.952;2022-10-03T13:33:15;20.40;78.50
14755;DHT22;7469;50.906;6.952;2022-10-03T13:35:48;20.40;78.50
14755;DHT22;7469;50.906;6.952;2022-10-03T13:39:00;20.40;78.50
14755;DHT22;7469;50.906;6.952;2022-10-03T13:41:58;20.30;78.50
14755;DHT22;7469;50.906;6.952;2022-10-03T13:44:35;20.30;78.50
14755;DHT22;7469;50.906;6.952;2022-10-03T13:47:15;20.20;79.00
14755;DHT22;7469;50.906;6.952;2022-10-03T13:49:51;20.10;79.70
14755;DHT22;7469;50.906;6.952;2022-10-03T13:52:27;20.10;80.60
14755;DHT22;7469;50.906;6.952;2022-10-03T13:55:12;20.10;81.30
14755;DHT22;7469;50.906;6.952;2022-10-03T13:57:53;20.10;81.70
14755;DHT22;7469;50.906;6.952;2022-10-03T14:00:26;20.10;82.10
14755;DHT22;7469;50.906;6.952;2022-10-03T14:03:18;20.00;82.40
14755;DHT22;7469;50.906;6.952;2022-10-03T14:05:54;19.90;82.50
14755;DHT22;7469;50.906;6.952;2022-10-03T14:08:36;19.80;82.80
14755;DHT22;7469;50.906;6.952;2022-10-03T14:11:20;19.70;83.60
14755;DHT22;7469;50.906;6.952;2022-10-03T14:14:11;19.60;84.10
14755;DHT22;7469;50.906;6.952;2022-10-03T14:16:52;19.60;84.80
14755;DHT22;7469;50.906;6.952;2022-10-03T14:19:30;19.50;85.30
14755;DHT22;7469;50.906;6.952;2022-10-03T14:22:11;19.50;86.00
14755;DHT22;7469;50.906;6.952;2022-10-03T14:27:50;19.50;87.30
14755;DHT22;7469;50.906;6.952;2022-10-03T14:30:21;19.60;87.50
14755;DHT22;7469;50.906;6.952;2022-10-03T14:33:00;19.80;87.60
14755;DHT22;7469;50.906;6.952;2022-10-03T14:35:40;19.80;87.50
14755;DHT22;7469;50.906;6.952;2022-10-03T14:38:39;19.90;87.30
14755;DHT22;7469;50.906;6.952;2022-10-03T14:41:45;20.00;86.90
14755;DHT22;7469;50.906;6.952;2022-10-03T14:44:18;20.30;85.30
14755;DHT22;7469;50.906;6.952;2022-10-03T14:46:53;20.50;84.00
14755;DHT22;7469;50.906;6.952;2022-10-03T14:49:26;20.70;82.90
14755;DHT22;7469;50.906;6.952;2022-10-03T14:52:24;20.90;81.50
14755;DHT22;7469;50.906;6.952;2022-10-03T14:54:55;20.90;80.50
14755;DHT22;7469;50.906;6.952;2022-10-03T14:57:31;21.00;80.10
14755;DHT22;7469;50.906;6.952;2022-10-03T15:00:27;21.00;79.50
14755;DHT22;7469;50.906;6.952;2022-10-03T15:03:19;21.00;78.80
14755;DHT22;7469;50.906;6.952;2022-10-03T15:05:57;20.90;78.40
14755;DHT22;7469;50.906;6.952;2022-10-03T15:08:32;20.80;78.10
14755;DHT22;7469;50.906;6.952;2022-10-03T15:11:02;20.70;78.50
14755;DHT22;7469;50.906;6.952;2022-10-03T15:13:34;20.60;78.60
14755;DHT22;7469;50.906;6.952;2022-10-03T15:16:09;20.50;78.90
14755;DHT22;7469;50.906;6.952;2022-10-03T15:18:49;20.50;79.00
14755;DHT22;7469;50.906;6.952;2022-10-03T15:21:18;20.40;79.20
14755;DHT22;7469;50.906;6.952;2022-10-03T15:23:53;20.20;79.30
14755;DHT22;7469;50.906;6.952;2022-10-03T15:26:24;20.10;79.60
14755;DHT22;7469;50.906;6.952;2022-10-03T15:28:56;20.10;80.00
14755;DHT22;7469;50.906;6.952;2022-10-03T15:31:33;20.00;80.50
14755;DHT22;7469;50.906;6.952;2022-10-03T15:34:05;19.90;80.70
14755;DHT22;7469;50.906;6.952;2022-10-03T15:36:36;19.80;81.20
14755;DHT22;7469;50.906;6.952;2022-10-03T15:39:14;19.80;81.80
14755;DHT22;7469;50.906;6.952;2022-10-03T15:41:50;19.70;83.00
14755;DHT22;7469;50.906;6.952;2022-10-03T15:44:22;19.50;82.50
14755;DHT22;7469;50.906;6.952;2022-10-03T15:46:58;19.40;83.10
14755;DHT22;7469;50.906;6.952;2022-10-03T15:49:29;19.30;83.60
14755;DHT22;7469;50.906;6.952;2022-10-03T15:52:06;19.20;84.10
14755;DHT22;7469;50.906;6.952;2022-10-03T15:54:35;19.10;84.40
14755;DHT22;7469;50.906;6.952;2022-10-03T15:57:06;19.00;84.90
14755;DHT22;7469;50.906;6.952;2022-10-03T15:59:34;18.90;85.40
14755;DHT22;7469;50.906;6.952;2022-10-03T16:02:11;18.80;86.00
14755;DHT22;7469;50.906;6.952;2022-10-03T16:04:43;18.70;86.70
14755;DHT22;7469;50.906;6.952;2022-10-03T16:07:19;18.60;87.40
14755;DHT22;7469;50.906;6.952;2022-10-03T16:09:52;18.50;87.90
14755;DHT22;7469;50.906;6.952;2022-10-03T16:12:44;18.40;88.60
14755;DHT22;7469;50.906;6.952;2022-10-03T16:15:18;18.30;89.20
14755;DHT22;7469;50.906;6.952;2022-10-03T16:17:53;18.20;89.90
14755;DHT22;7469;50.906;6.952;2022-10-03T16:20:24;18.10;90.20
14755;DHT22;7469;50.906;6.952;2022-10-03T16:22:56;18.00;90.60
14755;DHT22;7469;50.906;6.952;2022-10-03T16:25:27;17.90;90.90
14755;DHT22;7469;50.906;6.952;2022-10-03T16:27:58;17.90;91.40
14755;DHT22;7469;50.906;6.952;2022-10-03T16:30:33;17.80;91.80
14755;DHT22;7469;50.906;6.952;2022-10-03T16:33:11;17.70;92.20
14755;DHT22;7469;50.906;6.952;2022-10-03T16:35:43;17.70;92.70
14755;DHT22;7469;50.906;6.952;2022-10-03T16:38:20;17.60;93.20
14755;DHT22;7469;50.906;6.952;2022-10-03T16:40:53;17.50;93.80
14755;DHT22;7469;50.906;6.952;2022-10-03T16:43:22;17.40;94.30
14755;DHT22;7469;50.906;6.952;2022-10-03T16:45:52;17.30;94.80
14755;DHT22;7469;50.906;6.952;2022-10-03T16:48:26;17.20;95.60
14755;DHT22;7469;50.906;6.952;2022-10-03T16:51:18;17.20;96.30
14755;DHT22;7469;50.906;6.952;2022-10-03T16:53:49;17.00;97.00
14755;DHT22;7469;50.906;6.952;2022-10-03T16:56:22;17.00;97.60
14755;DHT22;7469;50.906;6.952;2022-10-03T16:58:53;16.90;98.00
14755;DHT22;7469;50.906;6.952;2022-10-03T17:01:27;16.80;98.50
14755;DHT22;7469;50.906;6.952;2022-10-03T17:04:11;16.70;99.00
14755;DHT22;7469;50.906;6.952;2022-10-03T17:06:45;16.60;99.40
14755;DHT22;7469;50.906;6.952;2022-10-03T17:09:19;16.40;99.90
14755;DHT22;7469;50.906;6.952;2022-10-03T17:11:52;16.30;99.90
14755;DHT22;7469;50.906;6.952;2022-10-03T17:14:21;16.20;99.90
14755;DHT22;7469;50.906;6.952;2022-10-03T17:16:55;16.10;99.90
14755;DHT22;7469;50.906;6.952;2022-10-03T17:19:34;16.00;99.90
14755;DHT22;7469;50.906;6.952;2022-10-03T17:22:12;15.90;99.90
14755;DHT22;7469;50.906;6.952;2022-10-03T17:24:45;15.80;99.90
14755;DHT22;7469;50.906;6.952;2022-10-03T17:27:22;15.70;99.90
14755;DHT22;7469;50.906;6.952;2022-10-03T17:29:56;15.60;99.90
14755;DHT22;7469;50.906;6.952;2022-10-03T17:32:32;15.50;99.90
14755;DHT22;7469;50.906;6.952;2022-10-03T17:35:10;15.40;99.90
14755;DHT22;7469;50.906;6.952;2022-10-03T17:37:55;15.30;99.90
14755;DHT22;7469;50.906;6.952;2022-10-03T17:40:48;15.10;99.90
14755;DHT22;7469;50.906;6.952;2022-10-03T17:43:23;15.20;99.90
14755;DHT22;7469;50.906;6.952;2022-10-03T17:46:02;15.10;99.90
14755;DHT22;7469;50.906;6.952;2022-10-03T17:48:36;15.10;99.90
14755;DHT22;7469;50.906;6.952;2022-10-03T17:51:29;15.10;99.90
14755;DHT22;7469;50.906;6.952;2022-10-03T17:54:00;15.00;99.90
14755;DHT22;7469;50.906;6.952;2022-10-03T17:56:31;15.00;99.90
14755;DHT22;7469;50.906;6.952;2022-10-03T17:59:03;14.90;99.90
14755;DHT22;7469;50.906;6.952;2022-10-03T18:01:35;14.80;99.90
14755;DHT22;7469;50.906;6.952;2022-10-03T18:04:13;14.80;99.90
14755;DHT22;7469;50.906;6.952;2022-10-03T18:06:46;14.70;99.90
14755;DHT22;7469;50.906;6.952;2022-10-03T18:09:37;14.70;99.90
14755;DHT22;7469;50.906;6.952;2022-10-03T18:12:13;14.60;99.90
14755;DHT22;7469;50.906;6.952;2022-10-03T18:14:54;14.50;99.90
14755;DHT22;7469;50.906;6.952;2022-10-03T18:17:34;14.50;99.90
14755;DHT22;7469;50.906;6.952;2022-10-03T18:20:18;14.40;99.90
14755;DHT22;7469;50.906;6.952;2022-10-03T18:22:58;14.40;99.90
14755;DHT22;7469;50.906;6.952;2022-10-03T18:25:29;14.30;99.90
14755;DHT22;7469;50.906;6.952;2022-10-03T18:28:43;14.30;99.90
14755;DHT22;7469;50.906;6.952;2022-10-03T18:31:17;14.20;99.90
14755;DHT22;7469;50.906;6.952;2022-10-03T18:33:50;14.20;99.90
14755;DHT22;7469;50.906;6.952;2022-10-03T18:36:22;14.10;99.90
14755;DHT22;7469;50.906;6.952;2022-10-03T18:38:57;14.10;99.90
14755;DHT22;7469;50.906;6.952;2022-10-03T18:41:26;14.00;99.90
14755;DHT22;7469;50.906;6.952;2022-10-03T18:43:57;14.00;99.90
14755;DHT22;7469;50.906;6.952;2022-10-03T18:46:28;13.90;99.90
14755;DHT22;7469;50.906;6.952;2022-10-03T18:49:04;13.90;99.90
14755;DHT22;7469;50.906;6.952;2022-10-03T18:51:55;13.80;99.90
14755;DHT22;7469;50.906;6.952;2022-10-03T18:54:33;13.80;99.90
14755;DHT22;7469;50.906;6.952;2022-10-03T18:57:07;13.70;99.90
14755;DHT22;7469;50.906;6.952;2022-10-03T18:59:44;13.70;99.90
14755;DHT22;7469;50.906;6.952;2022-10-03T19:02:20;13.70;99.90
14755;DHT22;7469;50.906;6.952;2022-10-03T19:04:53;13.60;99.90
14755;DHT22;7469;50.906;6.952;2022-10-03T19:07:24;13.50;99.90
14755;DHT22;7469;50.906;6.952;2022-10-03T19:13:08;13.50;99.90
14755;DHT22;7469;50.906;6.952;2022-10-03T19:16:01;13.40;99.90
14755;DHT22;7469;50.906;6.952;2022-10-03T19:18:39;13.40;99.90
14755;DHT22;7469;50.906;6.952;2022-10-03T19:21:12;13.40;99.90
14755;DHT22;7469;50.906;6.952;2022-10-03T19:23:46;13.40;99.90
14755;DHT22;7469;50.906;6.952;2022-10-03T19:26:21;13.30;99.90
14755;DHT22;7469;50.906;6.952;2022-10-03T19:28:55;13.30;99.90
14755;DHT22;7469;50.906;6.952;2022-10-03T19:31:29;13.30;99.90
14755;DHT22;7469;50.906;6.952;2022-10-03T19:34:01;13.20;99.90
14755;DHT22;7469;50.906;6.952;2022-10-03T19:36:31;13.20;99.90
14755;DHT22;7469;50.906;6.952;2022-10-03T19:39:03;13.30;99.90
14755;DHT22;7469;50.906;6.952;2022-10-03T19:41:34;13.30;99.90
14755;DHT22;7469;50.906;6.952;2022-10-03T19:44:07;13.20;99.90
14755;DHT22;7469;50.906;6.952;2022-10-03T19:46:49;13.30;99.90
14755;DHT22;7469;50.906;6.952;2022-10-03T19:49:31;13.20;99.90
14755;DHT22;7469;50.906;6.952;2022-10-03T19:52:10;13.20;99.90
14755;DHT22;7469;50.906;6.952;2022-10-03T19:54:49;13.20;99.90
14755;DHT22;7469;50.906;6.952;2022-10-03T19:57:20;13.20;99.90
14755;DHT22;7469;50.906;6.952;2022-10-03T19:59:53;13.10;99.90
14755;DHT22;7469;50.906;6.952;2022-10-03T20:02:24;13.10;99.90
14755;DHT22;7469;50.906;6.952;2022-10-03T20:04:55;13.10;99.90
14755;DHT22;7469;50.906;6.952;2022-10-03T20:07:42;13.10;99.90
14755;DHT22;7469;50.906;6.952;2022-10-03T20:10:29;13.10;99.90
14755;DHT22;7469;50.906;6.952;2022-10-03T20:12:59;13.10;99.90